sensor_id;sensor_type;location;lat;lon;timestamp;pressure;altitude;pressure_sealevel;temperature;humidity
66164;BME280;52962;51.088;3.096;2023-11-19T00:00:23;100771.41;;;15.07;100.00
66164;BME280;52962;51.088;3.096;2023-11-19T00:02:51;100774.06;;;15.02;100.00
66164;BME280;52962;51.088;3.096;2023-11-19T00:05:21;100782.03;;;15.05;100.00
66164;BME280;52962;51.088;3.096;2023-11-19T00:07:49;100777.59;;;15.14;100.00
66164;BME280;52962;51.088;3.096;2023-11-19T00:10:17;100775.84;;;15.10;100.00
66164;BME280;52962;51.088;3.096;2023-11-19T00:12:47;100776.72;;;15.02;100.00
66164;BME280;52962;51.088;3.096;2023-11-19T00:15:17;100783.78;;;15.05;100.00
66164;BME280;52962;51.088;3.096;2023-11-19T00:17:47;100782.00;;;14.96;100.00
66164;BME280;52962;51.088;3.096;2023-11-19T00:20:17;100785.56;;;15.01;100.00
66164;BME280;52962;51.088;3.096;2023-11-19T00:22:48;100786.44;;;14.96;100.00
66164;BME280;52962;51.088;3.096;2023-11-19T00:25:19;100789.97;;;14.98;100.00
66164;BME280;52962;51.088;3.096;2023-11-19T00:27:49;100790.84;;;14.91;100.00
66164;BME280;52962;51.088;3.096;2023-11-19T00:30:18;100792.59;;;14.93;100.00
66164;BME280;52962;51.088;3.096;2023-11-19T00:32:46;100791.72;;;14.87;100.00
66164;BME280;52962;51.088;3.096;2023-11-19T00:35:14;100788.13;;;14.71;100.00
66164;BME280;52962;51.088;3.096;2023-11-19T00:37:42;100772.25;;;14.74;100.00
66164;BME280;52962;51.088;3.096;2023-11-19T00:40:14;100771.34;;;14.73;100.00
66164;BME280;52962;51.088;3.096;2023-11-19T00:42:45;100758.97;;;14.62;100.00
66164;BME280;52962;51.088;3.096;2023-11-19T00:45:15;100751.00;;;14.60;100.00
66164;BME280;52962;51.088;3.096;2023-11-19T00:47:43;100752.78;;;14.63;100.00
66164;BME280;52962;51.088;3.096;2023-11-19T00:50:12;100756.31;;;14.51;100.00
66164;BME280;52962;51.088;3.096;2023-11-19T00:52:40;100757.19;;;14.49;100.00
66164;BME280;52962;51.088;3.096;2023-11-19T00:55:08;100761.53;;;14.40;100.00
66164;BME280;52962;51.088;3.096;2023-11-19T00:57:41;100754.47;;;14.41;100.00
66164;BME280;52962;51.088;3.096;2023-11-19T01:00:10;100758.06;;;14.43;100.00
66164;BME280;52962;51.088;3.096;2023-11-19T01:02:46;100751.88;;;14.46;100.00
66164;BME280;52962;51.088;3.096;2023-11-19T01:05:19;100753.66;;;14.53;100.00
66164;BME280;52962;51.088;3.096;2023-11-19T01:07:50;100753.66;;;14.53;100.00
66164;BME280;52962;51.088;3.096;2023-11-19T01:10:21;100751.00;;;14.50;100.00
66164;BME280;52962;51.088;3.096;2023-11-19T01:12:57;100763.38;;;14.49;100.00
66164;BME280;52962;51.088;3.096;2023-11-19T01:15:27;100759.84;;;14.53;100.00
66164;BME280;52962;51.088;3.096;2023-11-19T01:17:56;100758.06;;;14.57;100.00
66164;BME280;52962;51.088;3.096;2023-11-19T01:20:24;100757.19;;;14.50;100.00
66164;BME280;52962;51.088;3.096;2023-11-19T01:22:54;100755.44;;;14.54;100.00
66164;BME280;52962;51.088;3.096;2023-11-19T01:25:23;100743.03;;;14.57;100.00
66164;BME280;52962;51.088;3.096;2023-11-19T01:27:51;100758.97;;;14.56;100.00
66164;BME280;52962;51.088;3.096;2023-11-19T01:30:20;100756.31;;;14.63;100.00
66164;BME280;52962;51.088;3.096;2023-11-19T01:32:48;100756.31;;;14.54;100.00
66164;BME280;52962;51.088;3.096;2023-11-19T01:35:17;100751.03;;;14.54;100.00
66164;BME280;52962;51.088;3.096;2023-11-19T01:37:45;100748.38;;;14.53;100.00
66164;BME280;52962;51.088;3.096;2023-11-19T01:40:13;100752.78;;;14.54;100.00
66164;BME280;52962;51.088;3.096;2023-11-19T01:42:42;100758.06;;;14.46;100.00
66164;BME280;52962;51.088;3.096;2023-11-19T01:45:10;100754.47;;;14.41;100.00
66164;BME280;52962;51.088;3.096;2023-11-19T01:47:52;100750.06;;;14.38;100.00
66164;BME280;52962;51.088;3.096;2023-11-19T01:50:20;100744.78;;;14.42;100.00
66164;BME280;52962;51.088;3.096;2023-11-19T01:52:50;100745.63;;;14.34;100.00
66164;BME280;52962;51.088;3.096;2023-11-19T01:55:19;100738.63;;;14.50;100.00
66164;BME280;52962;51.088;3.096;2023-11-19T01:57:49;100748.38;;;14.53;100.00
66164;BME280;52962;51.088;3.096;2023-11-19T02:00:18;100738.63;;;14.46;100.00
66164;BME280;52962;51.088;3.096;2023-11-19T02:02:47;100744.81;;;14.46;100.00
66164;BME280;52962;51.088;3.096;2023-11-19T02:05:17;100747.47;;;14.49;100.00
66164;BME280;52962;51.088;3.096;2023-11-19T02:07:45;100746.56;;;14.58;100.00
66164;BME280;52962;51.088;3.096;2023-11-19T02:10:14;100751.00;;;14.57;100.00
66164;BME280;52962;51.088;3.096;2023-11-19T02:12:44;100743.06;;;14.60;100.00
66164;BME280;52962;51.088;3.096;2023-11-19T02:15:12;100760.72;;;14.57;100.00
66164;BME280;52962;51.088;3.096;2023-11-19T02:17:40;100744.81;;;14.57;100.00
66164;BME280;52962;51.088;3.096;2023-11-19T02:20:09;100740.41;;;14.48;100.00
66164;BME280;52962;51.088;3.096;2023-11-19T02:22:41;100754.53;;;14.47;100.00
66164;BME280;52962;51.088;3.096;2023-11-19T02:25:17;100746.56;;;14.46;100.00
66164;BME280;52962;51.088;3.096;2023-11-19T02:27:53;100730.59;;;14.33;100.00
66164;BME280;52962;51.088;3.096;2023-11-19T02:30:25;100735.91;;;14.36;100.00
66164;BME280;52962;51.088;3.096;2023-11-19T02:32:55;100732.34;;;14.28;100.00
66164;BME280;52962;51.088;3.096;2023-11-19T02:35:24;100735.00;;;14.25;100.00
66164;BME280;52962;51.088;3.096;2023-11-19T02:37:54;100733.25;;;14.32;100.00
66164;BME280;52962;51.088;3.096;2023-11-19T02:40:23;100731.50;;;14.32;100.00
66164;BME280;52962;51.088;3.096;2023-11-19T02:42:53;100727.91;;;14.23;100.00
66164;BME280;52962;51.088;3.096;2023-11-19T02:45:23;100731.44;;;14.23;100.00
66164;BME280;52962;51.088;3.096;2023-11-19T02:47:52;100723.50;;;14.23;100.00
66164;BME280;52962;51.088;3.096;2023-11-19T02:50:22;100725.25;;;14.18;100.00
66164;BME280;52962;51.088;3.096;2023-11-19T02:52:55;100726.16;;;14.22;100.00
66164;BME280;52962;51.088;3.096;2023-11-19T02:55:24;100730.53;;;14.15;100.00
66164;BME280;52962;51.088;3.096;2023-11-19T02:57:56;100734.06;;;14.16;100.00
66164;BME280;52962;51.088;3.096;2023-11-19T03:00:26;100735.84;;;14.20;100.00
66164;BME280;52962;51.088;3.096;2023-11-19T03:03:02;100734.97;;;14.22;100.00
66164;BME280;52962;51.088;3.096;2023-11-19T03:05:45;100746.44;;;14.21;100.00
66164;BME280;52962;51.088;3.096;2023-11-19T03:08:15;100754.41;;;14.20;100.00
66164;BME280;52962;51.088;3.096;2023-11-19T03:10:46;100758.81;;;14.22;100.00
66164;BME280;52962;51.088;3.096;2023-11-19T03:13:15;100746.38;;;14.03;100.00
66164;BME280;52962;51.088;3.096;2023-11-19T03:15:44;100764.06;;;14.13;100.00
66164;BME280;52962;51.088;3.096;2023-11-19T03:18:13;100760.53;;;14.11;100.00
66164;BME280;52962;51.088;3.096;2023-11-19T03:20:42;100759.66;;;14.14;100.00
66164;BME280;52962;51.088;3.096;2023-11-19T03:23:10;100751.66;;;14.03;100.00
66164;BME280;52962;51.088;3.096;2023-11-19T03:25:38;100752.53;;;13.99;100.00
66164;BME280;52962;51.088;3.096;2023-11-19T03:28:07;100753.47;;;14.13;100.00
66164;BME280;52962;51.088;3.096;2023-11-19T03:30:36;100759.69;;;14.17;100.00
66164;BME280;52962;51.088;3.096;2023-11-19T03:33:04;100749.97;;;14.14;100.00
66164;BME280;52962;51.088;3.096;2023-11-19T03:35:33;100754.34;;;14.06;100.00
66164;BME280;52962;51.088;3.096;2023-11-19T03:38:02;100763.16;;;14.05;100.00
66164;BME280;52962;51.088;3.096;2023-11-19T03:40:31;100764.84;;;13.94;100.00
66164;BME280;52962;51.088;3.096;2023-11-19T03:42:59;100755.19;;;13.99;100.00
66164;BME280;52962;51.088;3.096;2023-11-19T03:45:27;100752.50;;;13.96;100.00
66164;BME280;52962;51.088;3.096;2023-11-19T03:47:57;100752.47;;;13.87;100.00
66164;BME280;52962;51.088;3.096;2023-11-19T03:50:24;100746.31;;;13.91;100.00
66164;BME280;52962;51.088;3.096;2023-11-19T03:52:52;100756.88;;;13.89;100.00
66164;BME280;52962;51.088;3.096;2023-11-19T03:55:21;100748.03;;;13.86;100.00
66164;BME280;52962;51.088;3.096;2023-11-19T03:57:49;100743.66;;;13.91;100.00
66164;BME280;52962;51.088;3.096;2023-11-19T04:00:18;100748.09;;;13.95;100.00
66164;BME280;52962;51.088;3.096;2023-11-19T04:02:48;100747.19;;;13.90;100.00
66164;BME280;52962;51.088;3.096;2023-11-19T04:05:18;100760.41;;;13.87;100.00
66164;BME280;52962;51.088;3.096;2023-11-19T04:07:46;100755.06;;;13.78;100.00
66164;BME280;52962;51.088;3.096;2023-11-19T04:10:14;100767.47;;;13.88;100.00
66164;BME280;52962;51.088;3.096;2023-11-19T04:12:44;100759.53;;;13.91;100.00
66164;BME280;52962;51.088;3.096;2023-11-19T04:15:14;100744.53;;;13.90;100.00
66164;BME280;52962;51.088;3.096;2023-11-19T04:17:42;100762.19;;;13.91;100.00
66164;BME280;52962;51.088;3.096;2023-11-19T04:20:11;100763.03;;;13.85;100.00
66164;BME280;52962;51.088;3.096;2023-11-19T04:22:43;100764.78;;;13.80;100.00
66164;BME280;52962;51.088;3.096;2023-11-19T04:25:11;100767.41;;;13.79;100.00
66164;BME280;52962;51.088;3.096;2023-11-19T04:27:42;100766.53;;;13.80;100.00
66164;BME280;52962;51.088;3.096;2023-11-19T04:30:10;100757.69;;;13.73;100.00
66164;BME280;52962;51.088;3.096;2023-11-19T04:32:39;100760.28;;;13.65;100.00
66164;BME280;52962;51.088;3.096;2023-11-19T04:35:08;100763.81;;;13.67;100.00
66164;BME280;52962;51.088;3.096;2023-11-19T04:37:36;100774.34;;;13.61;100.00
66164;BME280;52962;51.088;3.096;2023-11-19T04:40:07;100766.50;;;13.72;100.00
66164;BME280;52962;51.088;3.096;2023-11-19T04:42:36;100768.25;;;13.73;100.00
66164;BME280;52962;51.088;3.096;2023-11-19T04:45:07;100760.31;;;13.73;100.00
66164;BME280;52962;51.088;3.096;2023-11-19T04:47:37;100750.69;;;13.83;100.00
66164;BME280;52962;51.088;3.096;2023-11-19T04:50:07;100752.50;;;13.96;100.00
66164;BME280;52962;51.088;3.096;2023-11-19T04:52:37;100762.19;;;13.88;100.00
66164;BME280;52962;51.088;3.096;2023-11-19T04:55:08;100762.22;;;13.94;100.00
66164;BME280;52962;51.088;3.096;2023-11-19T04:57:39;100759.53;;;13.86;100.00
66164;BME280;52962;51.088;3.096;2023-11-19T05:00:08;100755.13;;;13.90;100.00
66164;BME280;52962;51.088;3.096;2023-11-19T05:02:41;100744.50;;;13.84;100.00
66164;BME280;52962;51.088;3.096;2023-11-19T05:05:09;100743.63;;;13.83;100.00
66164;BME280;52962;51.088;3.096;2023-11-19T05:07:38;100738.34;;;13.85;100.00
66164;BME280;52962;51.088;3.096;2023-11-19T05:10:08;100749.75;;;13.78;100.00
66164;BME280;52962;51.088;3.096;2023-11-19T05:12:37;100749.75;;;13.78;100.00
66164;BME280;52962;51.088;3.096;2023-11-19T05:15:06;100749.78;;;13.79;100.00
66164;BME280;52962;51.088;3.096;2023-11-19T05:17:35;100744.38;;;13.62;100.00
66164;BME280;52962;51.088;3.096;2023-11-19T05:20:05;100752.38;;;13.71;100.00
66164;BME280;52962;51.088;3.096;2023-11-19T05:22:40;100745.31;;;13.73;100.00
66164;BME280;52962;51.088;3.096;2023-11-19T05:25:10;100743.53;;;13.71;100.00
66164;BME280;52962;51.088;3.096;2023-11-19T05:27:38;100755.00;;;13.67;100.00
66164;BME280;52962;51.088;3.096;2023-11-19T05:30:07;100754.13;;;13.71;100.00
66164;BME280;52962;51.088;3.096;2023-11-19T05:32:38;100751.50;;;13.72;100.00
66164;BME280;52962;51.088;3.096;2023-11-19T05:35:07;100754.94;;;13.59;100.00
66164;BME280;52962;51.088;3.096;2023-11-19T05:37:36;100758.50;;;13.64;100.00
66164;BME280;52962;51.088;3.096;2023-11-19T05:40:06;100750.50;;;13.55;100.00
66164;BME280;52962;51.088;3.096;2023-11-19T05:42:43;100733.78;;;13.59;100.00
66164;BME280;52962;51.088;3.096;2023-11-19T05:45:12;100739.03;;;13.53;100.00
66164;BME280;52962;51.088;3.096;2023-11-19T05:47:40;100752.28;;;13.58;100.00
66164;BME280;52962;51.088;3.096;2023-11-19T05:50:10;100751.41;;;13.60;100.00
66164;BME280;52962;51.088;3.096;2023-11-19T05:52:38;100754.06;;;13.59;100.00
66164;BME280;52962;51.088;3.096;2023-11-19T05:55:07;100754.06;;;13.59;100.00
66164;BME280;52962;51.088;3.096;2023-11-19T05:57:37;100755.81;;;13.58;100.00
66164;BME280;52962;51.088;3.096;2023-11-19T06:00:10;100750.50;;;13.55;100.00
66164;BME280;52962;51.088;3.096;2023-11-19T06:02:40;100757.56;;;13.55;100.00
66164;BME280;52962;51.088;3.096;2023-11-19T06:05:08;100745.22;;;13.57;100.00
66164;BME280;52962;51.088;3.096;2023-11-19T06:07:37;100747.00;;;13.58;100.00
66164;BME280;52962;51.088;3.096;2023-11-19T06:10:06;100739.06;;;13.59;100.00
66164;BME280;52962;51.088;3.096;2023-11-19T06:12:37;100730.22;;;13.56;100.00
66164;BME280;52962;51.088;3.096;2023-11-19T06:15:09;100736.38;;;13.50;100.00
66164;BME280;52962;51.088;3.096;2023-11-19T06:17:38;100733.72;;;13.53;100.00
66164;BME280;52962;51.088;3.096;2023-11-19T06:20:07;100733.72;;;13.47;100.00
66164;BME280;52962;51.088;3.096;2023-11-19T06:22:39;100733.66;;;13.36;100.00
66164;BME280;52962;51.088;3.096;2023-11-19T06:25:09;100740.72;;;13.37;100.00
66164;BME280;52962;51.088;3.096;2023-11-19T06:27:38;100735.44;;;13.39;100.00
66164;BME280;52962;51.088;3.096;2023-11-19T06:30:07;100727.50;;;13.39;100.00
66164;BME280;52962;51.088;3.096;2023-11-19T06:32:37;100746.91;;;13.41;100.00
66164;BME280;52962;51.088;3.096;2023-11-19T06:35:05;100746.91;;;13.39;100.00
66164;BME280;52962;51.088;3.096;2023-11-19T06:37:34;100750.47;;;13.48;100.00
66164;BME280;52962;51.088;3.096;2023-11-19T06:40:03;100745.22;;;13.51;100.00
66164;BME280;52962;51.088;3.096;2023-11-19T06:42:32;100751.41;;;13.60;100.00
66164;BME280;52962;51.088;3.096;2023-11-19T06:45:01;100747.81;;;13.46;100.00
66164;BME280;52962;51.088;3.096;2023-11-19T06:47:29;100756.63;;;13.42;100.00
66164;BME280;52962;51.088;3.096;2023-11-19T06:49:59;100754.81;;;13.38;100.00
66164;BME280;52962;51.088;3.096;2023-11-19T06:52:27;100747.75;;;13.37;100.00
66164;BME280;52962;51.088;3.096;2023-11-19T06:54:55;100747.72;;;13.31;100.00
66164;BME280;52962;51.088;3.096;2023-11-19T06:57:27;100763.59;;;13.34;100.00
66164;BME280;52962;51.088;3.096;2023-11-19T06:59:57;100770.63;;;13.29;100.00
66164;BME280;52962;51.088;3.096;2023-11-19T07:02:25;100778.59;;;13.33;100.00
66164;BME280;52962;51.088;3.096;2023-11-19T07:04:54;100782.13;;;13.35;100.00
66164;BME280;52962;51.088;3.096;2023-11-19T07:07:23;100775.97;;;13.38;100.00
66164;BME280;52962;51.088;3.096;2023-11-19T07:09:52;100788.34;;;13.42;100.00
66164;BME280;52962;51.088;3.096;2023-11-19T07:12:20;100792.75;;;13.40;100.00
66164;BME280;52962;51.088;3.096;2023-11-19T07:14:48;100785.63;;;13.33;100.00
66164;BME280;52962;51.088;3.096;2023-11-19T07:17:16;100786.56;;;13.39;100.00
66164;BME280;52962;51.088;3.096;2023-11-19T07:19:44;100790.97;;;13.39;100.00
66164;BME280;52962;51.088;3.096;2023-11-19T07:22:12;100784.81;;;13.40;100.00
66164;BME280;52962;51.088;3.096;2023-11-19T07:24:42;100802.53;;;13.49;100.00
66164;BME280;52962;51.088;3.096;2023-11-19T07:27:10;100803.41;;;13.49;100.00
66164;BME280;52962;51.088;3.096;2023-11-19T07:29:39;100802.56;;;13.59;100.00
66164;BME280;52962;51.088;3.096;2023-11-19T07:32:09;100805.25;;;13.64;100.00
66164;BME280;52962;51.088;3.096;2023-11-19T07:34:37;100800.91;;;13.73;100.00
66164;BME280;52962;51.088;3.096;2023-11-19T07:37:06;100793.81;;;13.69;100.00
66164;BME280;52962;51.088;3.096;2023-11-19T07:39:35;100799.03;;;13.60;100.00
66164;BME280;52962;51.088;3.096;2023-11-19T07:42:09;100800.75;;;13.52;100.00
66164;BME280;52962;51.088;3.096;2023-11-19T07:44:37;100803.44;;;13.58;100.00
66164;BME280;52962;51.088;3.096;2023-11-19T07:47:05;100799.03;;;13.57;100.00
66164;BME280;52962;51.088;3.096;2023-11-19T07:49:33;100799.97;;;13.64;100.00
66164;BME280;52962;51.088;3.096;2023-11-19T07:52:01;100806.16;;;13.67;100.00
66164;BME280;52962;51.088;3.096;2023-11-19T07:54:29;100803.56;;;13.77;100.00
66164;BME280;52962;51.088;3.096;2023-11-19T07:56:57;100800.91;;;13.73;100.00
66164;BME280;52962;51.088;3.096;2023-11-19T07:59:27;100804.50;;;13.85;100.00
66164;BME280;52962;51.088;3.096;2023-11-19T08:01:55;100806.31;;;13.92;100.00
66164;BME280;52962;51.088;3.096;2023-11-19T08:04:23;100801.03;;;13.95;100.00
66164;BME280;52962;51.088;3.096;2023-11-19T08:06:51;100806.31;;;13.89;100.00
66164;BME280;52962;51.088;3.096;2023-11-19T08:09:20;100801.94;;;13.97;100.00
66164;BME280;52962;51.088;3.096;2023-11-19T08:11:48;100808.16;;;14.05;100.00
66164;BME280;52962;51.088;3.096;2023-11-19T08:14:17;100803.78;;;14.10;100.00
66164;BME280;52962;51.088;3.096;2023-11-19T08:16:47;100804.66;;;14.09;100.00
66164;BME280;52962;51.088;3.096;2023-11-19T08:19:15;100798.53;;;14.19;100.00
66164;BME280;52962;51.088;3.096;2023-11-19T08:21:43;100795.91;;;14.22;100.00
66164;BME280;52962;51.088;3.096;2023-11-19T08:24:12;100794.13;;;14.18;100.00
66164;BME280;52962;51.088;3.096;2023-11-19T08:26:40;100790.53;;;14.10;100.00
66164;BME280;52962;51.088;3.096;2023-11-19T08:29:08;100790.53;;;14.10;100.00
66164;BME280;52962;51.088;3.096;2023-11-19T08:31:37;100795.81;;;14.04;100.00
66164;BME280;52962;51.088;3.096;2023-11-19T08:34:06;100800.16;;;13.94;100.00
66164;BME280;52962;51.088;3.096;2023-11-19T08:36:36;100809.91;;;14.03;100.00
66164;BME280;52962;51.088;3.096;2023-11-19T08:39:05;100809.94;;;14.09;100.00
66164;BME280;52962;51.088;3.096;2023-11-19T08:41:35;100805.53;;;14.05;100.00
66164;BME280;52962;51.088;3.096;2023-11-19T08:44:06;100797.53;;;13.97;100.00
66164;BME280;52962;51.088;3.096;2023-11-19T08:46:34;100794.88;;;13.94;100.00
66164;BME280;52962;51.088;3.096;2023-11-19T08:49:02;100793.09;;;13.93;100.00
66164;BME280;52962;51.088;3.096;2023-11-19T08:51:31;100789.56;;;13.96;100.00
66164;BME280;52962;51.088;3.096;2023-11-19T08:54:00;100804.63;;;14.03;100.00
66164;BME280;52962;51.088;3.096;2023-11-19T08:56:28;100801.16;;;14.13;100.00
66164;BME280;52962;51.088;3.096;2023-11-19T08:58:59;100794.16;;;14.27;100.00
66164;BME280;52962;51.088;3.096;2023-11-19T09:01:28;100781.84;;;14.35;100.00
66164;BME280;52962;51.088;3.096;2023-11-19T09:03:56;100774.84;;;14.44;100.00
66164;BME280;52962;51.088;3.096;2023-11-19T09:06:24;100778.41;;;14.55;100.00
66164;BME280;52962;51.088;3.096;2023-11-19T09:08:55;100778.41;;;14.67;100.00
66164;BME280;52962;51.088;3.096;2023-11-19T09:11:29;100784.63;;;14.80;100.00
66164;BME280;52962;51.088;3.096;2023-11-19T09:13:57;100780.22;;;14.79;100.00
66164;BME280;52962;51.088;3.096;2023-11-19T09:16:25;100767.84;;;14.79;100.00
66164;BME280;52962;51.088;3.096;2023-11-19T09:18:53;100768.72;;;14.80;100.00
66164;BME280;52962;51.088;3.096;2023-11-19T09:21:21;100761.63;;;14.68;100.00
66164;BME280;52962;51.088;3.096;2023-11-19T09:23:50;100770.47;;;14.71;100.00
66164;BME280;52962;51.088;3.096;2023-11-19T09:26:19;100771.31;;;14.57;100.00
66164;BME280;52962;51.088;3.096;2023-11-19T09:28:47;100771.31;;;14.48;100.00
66164;BME280;52962;51.088;3.096;2023-11-19T09:31:16;100773.88;;;14.34;100.00
66164;BME280;52962;51.088;3.096;2023-11-19T09:33:44;100789.78;;;14.35;100.00
66164;BME280;52962;51.088;3.096;2023-11-19T09:36:13;100794.28;;;14.49;100.00
66164;BME280;52962;51.088;3.096;2023-11-19T09:38:41;100788.09;;;14.45;100.00
66164;BME280;52962;51.088;3.096;2023-11-19T09:41:10;100791.59;;;14.43;100.00
66164;BME280;52962;51.088;3.096;2023-11-19T09:43:42;100789.78;;;14.40;100.00
66164;BME280;52962;51.088;3.096;2023-11-19T09:46:13;100796.03;;;14.44;100.00
66164;BME280;52962;51.088;3.096;2023-11-19T09:48:44;100794.22;;;14.39;100.00
66164;BME280;52962;51.088;3.096;2023-11-19T09:51:15;100793.41;;;14.51;100.00
66164;BME280;52962;51.088;3.096;2023-11-19T09:53:44;100796.06;;;14.56;100.00
66164;BME280;52962;51.088;3.096;2023-11-19T09:56:13;100804.03;;;14.68;100.00
66164;BME280;52962;51.088;3.096;2023-11-19T09:58:45;100804.09;;;14.89;100.00
66164;BME280;52962;51.088;3.096;2023-11-19T10:01:14;100787.31;;;14.93;100.00
66164;BME280;52962;51.088;3.096;2023-11-19T10:03:46;100796.16;;;14.95;100.00
66164;BME280;52962;51.088;3.096;2023-11-19T10:06:15;100805.00;;;15.00;100.00
66164;BME280;52962;51.088;3.096;2023-11-19T10:08:46;100799.69;;;15.00;100.00
66164;BME280;52962;51.088;3.096;2023-11-19T10:11:14;100802.31;;;14.91;100.00
66164;BME280;52962;51.088;3.096;2023-11-19T10:13:42;100803.22;;;14.93;100.00
66164;BME280;52962;51.088;3.096;2023-11-19T10:16:18;100803.25;;;15.09;100.00
66164;BME280;52962;51.088;3.096;2023-11-19T10:18:47;100796.19;;;15.20;100.00
66164;BME280;52962;51.088;3.096;2023-11-19T10:21:17;100783.81;;;15.35;100.00
66164;BME280;52962;51.088;3.096;2023-11-19T10:23:50;100776.72;;;15.45;100.00
66164;BME280;52962;51.088;3.096;2023-11-19T10:26:19;100782.03;;;15.56;100.00
66164;BME280;52962;51.088;3.096;2023-11-19T10:28:48;100783.78;;;15.64;100.00
66164;BME280;52962;51.088;3.096;2023-11-19T10:31:19;100774.94;;;15.62;100.00
66164;BME280;52962;51.088;3.096;2023-11-19T10:33:49;100761.69;;;15.56;100.00
66164;BME280;52962;51.088;3.096;2023-11-19T10:36:18;100762.59;;;15.58;100.00
66164;BME280;52962;51.088;3.096;2023-11-19T10:38:53;100768.75;;;15.60;100.00
66164;BME280;52962;51.088;3.096;2023-11-19T10:41:28;100758.13;;;15.73;100.00
66164;BME280;52962;51.088;3.096;2023-11-19T10:43:58;100747.44;;;15.91;100.00
66164;BME280;52962;51.088;3.096;2023-11-19T10:46:38;100736.78;;;16.06;100.00
66164;BME280;52962;51.088;3.096;2023-11-19T10:49:07;100725.28;;;16.04;100.00
66164;BME280;52962;51.088;3.096;2023-11-19T10:51:35;100727.94;;;16.02;100.00
66164;BME280;52962;51.088;3.096;2023-11-19T10:54:04;100728.84;;;15.95;100.00
66164;BME280;52962;51.088;3.096;2023-11-19T10:56:34;100731.50;;;15.98;100.00
66164;BME280;52962;51.088;3.096;2023-11-19T10:59:02;100727.97;;;15.89;100.00
66164;BME280;52962;51.088;3.096;2023-11-19T11:01:53;100732.50;;;15.58;100.00
66164;BME280;52962;51.088;3.096;2023-11-19T11:04:24;100761.69;;;15.30;100.00
66164;BME280;52962;51.088;3.096;2023-11-19T11:06:54;100755.50;;;15.09;100.00
66164;BME280;52962;51.088;3.096;2023-11-19T11:09:26;100764.31;;;14.85;100.00
66164;BME280;52962;51.088;3.096;2023-11-19T11:11:56;100787.09;;;14.26;100.00
66164;BME280;52962;51.088;3.096;2023-11-19T11:14:27;100806.31;;;13.89;100.00
66164;BME280;52962;51.088;3.096;2023-11-19T11:16:57;100774.50;;;13.86;100.00
66164;BME280;52962;51.088;3.096;2023-11-19T11:19:26;100785.03;;;13.77;100.00
66164;BME280;52962;51.088;3.096;2023-11-19T11:21:54;100781.50;;;13.74;100.00
66164;BME280;52962;51.088;3.096;2023-11-19T11:24:43;100765.59;;;13.70;100.00
66164;BME280;52962;51.088;3.096;2023-11-19T11:27:43;100770.06;;;13.79;100.00
66164;BME280;52962;51.088;3.096;2023-11-19T11:30:28;100758.63;;;13.86;100.00
66164;BME280;52962;51.088;3.096;2023-11-19T11:33:11;100761.28;;;13.87;100.00
66164;BME280;52962;51.088;3.096;2023-11-19T11:35:52;100756.03;;;13.96;100.00
66164;BME280;52962;51.088;3.096;2023-11-19T11:38:23;100760.50;;;14.02;100.00
66164;BME280;52962;51.088;3.096;2023-11-19T11:41:16;100760.53;;;14.11;100.00
66164;BME280;52962;51.088;3.096;2023-11-19T11:43:49;100755.25;;;14.16;100.00
66164;BME280;52962;51.088;3.096;2023-11-19T11:46:54;100744.66;;;14.11;100.00
66164;BME280;52962;51.088;3.096;2023-11-19T11:49:29;100741.13;;;14.15;100.00
66164;BME280;52962;51.088;3.096;2023-11-19T11:52:05;100744.66;;;14.14;100.00
66164;BME280;52962;51.088;3.096;2023-11-19T11:54:34;100742.94;;;14.25;100.00
66164;BME280;52962;51.088;3.096;2023-11-19T11:57:07;100743.84;;;14.30;100.00
66164;BME280;52962;51.088;3.096;2023-11-19T12:00:08;100747.34;;;14.20;100.00
66164;BME280;52962;51.088;3.096;2023-11-19T12:02:45;100750.00;;;14.26;100.00
66164;BME280;52962;51.088;3.096;2023-11-19T12:05:27;100749.22;;;14.47;100.00
66164;BME280;52962;51.088;3.096;2023-11-19T12:08:00;100745.63;;;14.37;100.00
66164;BME280;52962;51.088;3.096;2023-11-19T12:10:29;100759.72;;;14.26;100.00
66164;BME280;52962;51.088;3.096;2023-11-19T12:13:00;100751.75;;;14.20;100.00
66164;BME280;52962;51.088;3.096;2023-11-19T12:15:29;100753.47;;;14.10;100.00
66164;BME280;52962;51.088;3.096;2023-11-19T12:17:57;100750.84;;;14.13;100.00
66164;BME280;52962;51.088;3.096;2023-11-19T12:20:27;100743.78;;;14.18;100.00
66164;BME280;52962;51.088;3.096;2023-11-19T12:23:04;100736.72;;;14.16;100.00
66164;BME280;52962;51.088;3.096;2023-11-19T12:25:34;100735.84;;;14.18;100.00
66164;BME280;52962;51.088;3.096;2023-11-19T12:28:03;100725.25;;;14.18;100.00
66164;BME280;52962;51.088;3.096;2023-11-19T12:30:32;100730.56;;;14.18;100.00
66164;BME280;52962;51.088;3.096;2023-11-19T12:33:07;100724.41;;;14.28;100.00
66164;BME280;52962;51.088;3.096;2023-11-19T12:35:40;100722.66;;;14.33;100.00
66164;BME280;52962;51.088;3.096;2023-11-19T12:38:18;100710.28;;;14.31;100.00
66164;BME280;52962;51.088;3.096;2023-11-19T12:40:46;100719.13;;;14.33;100.00
66164;BME280;52962;51.088;3.096;2023-11-19T12:43:21;100712.94;;;14.32;100.00
66164;BME280;52962;51.088;3.096;2023-11-19T12:45:50;100715.59;;;14.32;100.00
66164;BME280;52962;51.088;3.096;2023-11-19T12:48:19;100704.09;;;14.29;100.00
66164;BME280;52962;51.088;3.096;2023-11-19T12:50:52;100704.13;;;14.33;100.00
66164;BME280;52962;51.088;3.096;2023-11-19T12:53:22;100718.34;;;14.54;100.00
66164;BME280;52962;51.088;3.096;2023-11-19T12:55:51;100705.09;;;14.70;100.00